Darstellungsparameter: Aktuell verwendete Einstellungen:
Skalierung der Graphiken ... ?
xyx+y,   Skalierungsfaktor:      Skalierung: Modus: x, Faktor: 1
Darstellungszeitraum ... ?
Vom - - bis: - -   Zeitraum: 28.12.2009 - 29.12.2009
Min/Max/Avg-Anzeige ... ?
Zeige MMA aktuell
Zeige MMA Monat
Zeige MMA alles
Zeige --A aktuell
Zeige --A Monat
Zeige --A alles
Keine MMA-Anzeige
MMA:
Average (ber die Originaldaten)
MMA-Basis: 28.12.2009 - 29.12.2009
Quicknavigation für Darstellung... ?
Tage:      1T, 2T, 3T, 5T -1T -2T -3T -5T +1T +2T +3T +5T
Wochen: 1W, 2W, 3W -1W -2W -3W +1W +2W +3W
Monate: 1M, 3M, 6M -1M -3M -6M +1M +3M +6M
Jahre:    1J, 3J, 5J, 10J -1J -3J -5J -10J +1J +3J +5J +10J
Nutze für die Darstellung ... ?
Originaldaten oder Mittelwerte auf ...
Stundenbasis Tagesbasis Wochenbasis
Monatsbasis Jahresbasis      Datenbasis: Original-Daten
Darstellen als:
Statistik (Auto) Statistik J:M      Darstellung:
Zur Graphik,    zurück zur Übersicht aller Sensoren.
 
Tabellarische Datenbersicht: ?
 
Sensor: Nr:Datum:Temp:Abs-Feuchte:Windchill:Wind:
Aussen-T/F 1 28-12-2009 00:02:03 3.1 C 5.21 g/m*3 3.1 C 0 km/h
2 28-12-2009 00:14:03 3 C 5.17 g/m*3 3 C 0 km/h
3 28-12-2009 00:26:03 3.1 C 5.21 g/m*3 3.1 C 0 km/h
4 28-12-2009 00:38:03 3.4 C 5.25 g/m*3 3.4 C 0 km/h
5 28-12-2009 00:50:03 3.5 C 5.16 g/m*3 3.5 C 0 km/h
6 28-12-2009 01:02:03 3.7 C 5.17 g/m*3 3.7 C 0 km/h
7 28-12-2009 01:14:03 3.8 C 5.14 g/m*3 3.8 C 0 km/h
8 28-12-2009 01:26:03 3.8 C 5.08 g/m*3 3.8 C 0 km/h
9 28-12-2009 01:38:03 3.8 C 5.08 g/m*3 3.8 C 0 km/h
10 28-12-2009 01:50:03 3.7 C 5.11 g/m*3 3.7 C 0 km/h
11 28-12-2009 02:02:03 3.7 C 5.05 g/m*3 3.7 C 0 km/h
12 28-12-2009 02:14:03 3.9 C 4.99 g/m*3 3.9 C 0 km/h
13 28-12-2009 02:26:04 3.9 C 4.93 g/m*3 3.9 C 0 km/h
14 28-12-2009 02:38:04 4 C 4.83 g/m*3 4 C 0 km/h
15 28-12-2009 02:50:04 4 C 4.77 g/m*3 4 C 0 km/h
16 28-12-2009 03:02:04 4 C 4.7 g/m*3 4 C 0 km/h
17 28-12-2009 03:14:04 3.9 C 4.74 g/m*3 3.9 C 0 km/h
18 28-12-2009 03:26:04 3.8 C 4.77 g/m*3 3.8 C 0 km/h
19 28-12-2009 03:38:04 3.7 C 4.74 g/m*3 3.7 C 0 km/h
20 28-12-2009 03:50:04 3.6 C 4.7 g/m*3 3.6 C 0 km/h
21 28-12-2009 04:02:04 3.5 C 4.73 g/m*3 3.5 C 0 km/h
22 28-12-2009 04:14:04 3.6 C 4.77 g/m*3 3.6 C 0 km/h
23 28-12-2009 04:26:04 3.6 C 4.77 g/m*3 3.6 C 0 km/h
24 28-12-2009 04:38:04 3.6 C 4.7 g/m*3 3.6 C 0 km/h
25 28-12-2009 04:50:04 3.7 C 4.61 g/m*3 3.7 C 0 km/h
Sensor: Nr:Datum:Temp:Abs-Feuchte:Windchill:Wind:
Aussen-T/F 26 28-12-2009 05:02:04 3.7 C 4.61 g/m*3 3.7 C 0 km/h
27 28-12-2009 05:14:04 3.6 C 4.64 g/m*3 3.6 C 0 km/h
28 28-12-2009 05:26:04 3.5 C 4.67 g/m*3 3.5 C 0 km/h
29 28-12-2009 05:38:04 3.5 C 4.73 g/m*3 3.5 C 0 km/h
30 28-12-2009 05:50:04 3.3 C 4.67 g/m*3 3.3 C 0 km/h
31 28-12-2009 06:02:04 3.1 C 4.79 g/m*3 3.1 C 0 km/h
32 28-12-2009 06:14:04 3.1 C 4.91 g/m*3 3.1 C 0 km/h
33 28-12-2009 06:26:04 3.1 C 4.91 g/m*3 3.1 C 0 km/h
34 28-12-2009 06:38:04 3.1 C 4.91 g/m*3 3.1 C 0 km/h
35 28-12-2009 06:50:04 3.1 C 4.91 g/m*3 3.1 C 0 km/h
36 28-12-2009 07:02:05 3.2 C 4.88 g/m*3 3.2 C 0 km/h
37 28-12-2009 07:14:05 3.2 C 4.88 g/m*3 3.2 C 0 km/h
38 28-12-2009 07:26:05 3.2 C 4.82 g/m*3 3.2 C 0 km/h
39 28-12-2009 07:38:05 3.2 C 4.76 g/m*3 3.2 C 0 km/h
40 28-12-2009 07:50:05 3.3 C 4.79 g/m*3 3.3 C 0 km/h
41 28-12-2009 08:02:05 3.3 C 4.79 g/m*3 3.3 C 0 km/h
42 28-12-2009 08:14:05 3.3 C 4.79 g/m*3 3.3 C 0 km/h
43 28-12-2009 08:26:05 3.5 C 4.8 g/m*3 3.5 C 0 km/h
44 28-12-2009 08:38:05 3.5 C 4.73 g/m*3 3.5 C 0 km/h
45 28-12-2009 08:50:05 3.5 C 4.67 g/m*3 3.5 C 0 km/h
46 28-12-2009 09:02:02 3.5 C 4.67 g/m*3 3.5 C 0 km/h
47 28-12-2009 09:14:02 3.5 C 4.61 g/m*3 3.5 C 0 km/h
48 28-12-2009 09:26:03 3.7 C 4.49 g/m*3 3.7 C 0 km/h
49 28-12-2009 09:38:02 3.7 C 4.49 g/m*3 3.7 C 0 km/h
50 28-12-2009 09:50:02 3.8 C 4.52 g/m*3 3.8 C 0 km/h
Sensor: Nr:Datum:Temp:Abs-Feuchte:Windchill:Wind:
Aussen-T/F 51 28-12-2009 10:02:02 3.8 C 4.45 g/m*3 3.8 C 0 km/h
52 28-12-2009 10:14:02 3.9 C 4.42 g/m*3 3.9 C 0 km/h
53 28-12-2009 10:26:02 3.9 C 4.42 g/m*3 3.9 C 0 km/h
54 28-12-2009 10:38:02 4 C 4.26 g/m*3 4 C 0 km/h
55 28-12-2009 10:50:02 3.8 C 4.27 g/m*3 3.8 C 0 km/h
56 28-12-2009 11:02:01 4 C 4.2 g/m*3 4 C 0 km/h
57 28-12-2009 11:14:01 4.1 C 4.22 g/m*3 4.1 C 0 km/h
58 28-12-2009 11:26:02 3.9 C 4.29 g/m*3 3.9 C 0 km/h
59 28-12-2009 11:38:02 3.7 C 4.36 g/m*3 3.7 C 0 km/h
60 28-12-2009 11:50:02 3.7 C 4.36 g/m*3 3.7 C 0 km/h
61 28-12-2009 12:02:03 4.3 C 4.48 g/m*3 4.3 C 0 km/h
62 28-12-2009 12:14:03 4.7 C 4.46 g/m*3 4.7 C 0 km/h
63 28-12-2009 12:26:02 4.9 C 4.32 g/m*3 4.9 C 0 km/h
64 28-12-2009 12:38:02 4.9 C 4.39 g/m*3 4.9 C 0 km/h
65 28-12-2009 12:50:02 4.9 C 4.39 g/m*3 4.9 C 0 km/h
66 28-12-2009 13:02:02 5 C 4.28 g/m*3 5 C 0 km/h
67 28-12-2009 13:14:02 5 C 4.28 g/m*3 5 C 0 km/h
68 28-12-2009 13:26:01 5 C 4.28 g/m*3 5 C 0 km/h
69 28-12-2009 13:38:02 5.1 C 4.24 g/m*3 5.1 C 0 km/h
70 28-12-2009 13:50:02 4.9 C 4.32 g/m*3 4.9 C 0 km/h
71 28-12-2009 14:02:02 4.8 C 4.29 g/m*3 4.8 C 0 km/h
72 28-12-2009 14:14:02 4.9 C 4.25 g/m*3 4.9 C 0 km/h
73 28-12-2009 14:26:01 4.7 C 4.13 g/m*3 4.7 C 0 km/h
74 28-12-2009 14:38:02 4.7 C 4.13 g/m*3 4.7 C 0 km/h
75 28-12-2009 14:50:02 4.7 C 4.13 g/m*3 4.7 C 0 km/h
Sensor: Nr:Datum:Temp:Abs-Feuchte:Windchill:Wind:
Aussen-T/F 76 28-12-2009 15:02:02 4.6 C 4.17 g/m*3 4.6 C 0 km/h
77 28-12-2009 15:14:02 4.5 C 4.21 g/m*3 4.5 C 0 km/h
78 28-12-2009 15:26:01 4.5 C 4.27 g/m*3 4.5 C 0 km/h
79 28-12-2009 15:38:02 4.5 C 4.27 g/m*3 4.5 C 0 km/h
80 28-12-2009 15:50:01 4.5 C 4.21 g/m*3 4.5 C 0 km/h
81 28-12-2009 16:02:02 4.4 C 4.11 g/m*3 4.4 C 0 km/h
82 28-12-2009 16:14:02 4.4 C 4.18 g/m*3 4.4 C 0 km/h
83 28-12-2009 16:26:02 4.3 C 4.15 g/m*3 4.3 C 0 km/h
84 28-12-2009 16:38:02 4.2 C 4.19 g/m*3 4.2 C 0 km/h
85 28-12-2009 16:50:02 4 C 4.2 g/m*3 4 C 0 km/h
86 28-12-2009 17:02:01 3.9 C 4.36 g/m*3 3.9 C 0 km/h
87 28-12-2009 17:14:01 3.8 C 4.39 g/m*3 3.8 C 0 km/h
88 28-12-2009 17:26:02 3.7 C 4.36 g/m*3 3.7 C 0 km/h
89 28-12-2009 17:38:01 3.7 C 4.36 g/m*3 3.7 C 0 km/h
90 28-12-2009 17:50:02 3.5 C 4.3 g/m*3 3.5 C 0 km/h
91 28-12-2009 18:02:01 3.4 C 4.34 g/m*3 3.4 C 0 km/h
92 28-12-2009 18:14:01 3.3 C 4.37 g/m*3 3.3 C 0 km/h
93 28-12-2009 18:26:01 3.4 C 4.46 g/m*3 3.4 C 0 km/h
94 28-12-2009 18:38:01 3.4 C 4.46 g/m*3 3.4 C 0 km/h
95 28-12-2009 18:50:02 3.4 C 4.4 g/m*3 3.4 C 0 km/h
96 28-12-2009 19:02:01 3.3 C 4.43 g/m*3 3.3 C 0 km/h
97 28-12-2009 19:14:01 3.1 C 4.31 g/m*3 3.1 C 0 km/h
98 28-12-2009 19:26:02 2.9 C 4.37 g/m*3 2.9 C 0 km/h
99 28-12-2009 19:38:02 2.6 C 4.28 g/m*3 2.6 C 0 km/h
100 28-12-2009 19:50:01 2.1 C 4.2 g/m*3 2.1 C 0 km/h
Sensor: Nr:Datum:Temp:Abs-Feuchte:Windchill:Wind:
Aussen-T/F 101 28-12-2009 20:02:02 1.6 C 4.16 g/m*3 1.6 C 0 km/h
102 28-12-2009 20:14:02 1.3 C 4.13 g/m*3 1.3 C 0 km/h
103 28-12-2009 20:26:01 1 C 4.15 g/m*3 1 C 0 km/h
104 28-12-2009 20:38:02 0.9 C 4.23 g/m*3 0.9 C 0 km/h
105 28-12-2009 20:50:02 0.5 C 4.11 g/m*3 0.5 C 0 km/h
106 28-12-2009 21:02:02 0.4 C 4.13 g/m*3 0.4 C 0 km/h
107 28-12-2009 21:14:02 0.5 C 4.21 g/m*3 0.5 C 0 km/h
108 28-12-2009 21:26:01 0.3 C 4.16 g/m*3 0.3 C 0 km/h
109 28-12-2009 21:38:02 0.1 C 4.1 g/m*3 0.1 C 0 km/h
110 28-12-2009 21:50:02 -0.3 C 3.99 g/m*3 -0.3 C 0 km/h
111 28-12-2009 22:02:02 -0.4 C 3.96 g/m*3 -0.4 C 0 km/h
112 28-12-2009 22:14:02 -0.5 C 3.93 g/m*3 -0.5 C 0 km/h
113 28-12-2009 22:26:02 -0.7 C 3.92 g/m*3 -0.7 C 0 km/h
114 28-12-2009 22:38:02 -0.9 C 3.87 g/m*3 -0.9 C 0 km/h
115 28-12-2009 22:51:03 -1 C 3.84 g/m*3 -1 C 0 km/h
116 28-12-2009 23:03:03 -1.2 C 3.79 g/m*3 -1.2 C 0 km/h
117 28-12-2009 23:15:03 -1.2 C 3.83 g/m*3 -1.2 C 0 km/h
118 28-12-2009 23:27:03 -1.3 C 3.85 g/m*3 -1.3 C 0 km/h
119 28-12-2009 23:39:03 -1.3 C 3.85 g/m*3 -1.3 C 0 km/h
120 28-12-2009 23:51:03 -1.3 C 3.85 g/m*3 -1.3 C 0 km/h
121 29-12-2009 00:03:03 -1.8 C 3.72 g/m*3 -1.8 C 0 km/h
122 29-12-2009 00:15:03 -1.7 C 3.75 g/m*3 -1.7 C 0 km/h
123 29-12-2009 00:27:03 -2 C 3.67 g/m*3 -2 C 0 km/h
124 29-12-2009 00:39:03 -2 C 3.71 g/m*3 -2 C 0 km/h
125 29-12-2009 00:51:03 -2.2 C 3.66 g/m*3 -2.2 C 0 km/h
Sensor: Nr:Datum:Temp:Abs-Feuchte:Windchill:Wind:
Aussen-T/F 126 29-12-2009 01:03:03 -2.1 C 3.68 g/m*3 -2.1 C 0 km/h
127 29-12-2009 01:15:03 -2.1 C 3.68 g/m*3 -2.1 C 0 km/h
128 29-12-2009 01:27:03 -2.1 C 3.73 g/m*3 -2.1 C 0 km/h
129 29-12-2009 01:39:03 -2.2 C 3.66 g/m*3 -2.2 C 0 km/h
130 29-12-2009 01:51:03 -2.1 C 3.73 g/m*3 -2.1 C 0 km/h
131 29-12-2009 02:03:03 -2.2 C 3.7 g/m*3 -2.2 C 0 km/h
132 29-12-2009 02:15:03 -2.3 C 3.67 g/m*3 -2.3 C 0 km/h
133 29-12-2009 02:27:03 -2.3 C 3.67 g/m*3 -2.3 C 0 km/h
134 29-12-2009 02:39:03 -2.3 C 3.67 g/m*3 -2.3 C 0 km/h
135 29-12-2009 02:51:04 -2.1 C 3.77 g/m*3 -2.1 C 0 km/h
136 29-12-2009 03:03:04 -2 C 3.79 g/m*3 -2 C 0 km/h
137 29-12-2009 03:15:04 -2.1 C 3.77 g/m*3 -2.1 C 0 km/h
138 29-12-2009 03:27:04 -2.2 C 3.74 g/m*3 -2.2 C 0 km/h
139 29-12-2009 03:39:04 -2.3 C 3.71 g/m*3 -2.3 C 0 km/h
140 29-12-2009 03:51:04 -2.2 C 3.78 g/m*3 -2.2 C 0 km/h
141 29-12-2009 04:03:04 -2.5 C 3.66 g/m*3 -2.5 C 0 km/h
142 29-12-2009 04:15:04 -2.5 C 3.66 g/m*3 -2.5 C 0 km/h
143 29-12-2009 04:27:04 -2.6 C 3.68 g/m*3 -2.6 C 0 km/h
144 29-12-2009 04:39:04 -2.6 C 3.68 g/m*3 -2.6 C 0 km/h
145 29-12-2009 04:51:04 -2.6 C 3.68 g/m*3 -2.6 C 0 km/h
146 29-12-2009 05:03:04 -2.8 C 3.63 g/m*3 -2.8 C 0 km/h
147 29-12-2009 05:15:04 -2.7 C 3.65 g/m*3 -2.7 C 0 km/h
148 29-12-2009 05:27:04 -2.7 C 3.69 g/m*3 -2.7 C 0 km/h
149 29-12-2009 05:39:04 -2.8 C 3.67 g/m*3 -2.8 C 0 km/h
150 29-12-2009 05:51:04 -2.9 C 3.64 g/m*3 -2.9 C 0 km/h
Sensor: Nr:Datum:Temp:Abs-Feuchte:Windchill:Wind:
Aussen-T/F 151 29-12-2009 06:03:04 -2.9 C 3.64 g/m*3 -2.9 C 0 km/h
152 29-12-2009 06:15:04 -2.9 C 3.64 g/m*3 -2.9 C 0 km/h
153 29-12-2009 06:27:04 -2.6 C 3.72 g/m*3 -2.6 C 0 km/h
154 29-12-2009 06:39:04 -2.3 C 3.84 g/m*3 -2.3 C 0 km/h
155 29-12-2009 06:51:04 -1.9 C 3.95 g/m*3 -1.9 C 0 km/h
156 29-12-2009 07:03:04 -1.7 C 4.05 g/m*3 -1.7 C 0 km/h
157 29-12-2009 07:15:05 -1.6 C 4.07 g/m*3 -1.6 C 0 km/h
158 29-12-2009 07:27:05 -1.3 C 4.16 g/m*3 -1.3 C 0 km/h
159 29-12-2009 07:39:02 -1.2 C 4.19 g/m*3 -1.2 C 0 km/h
160 29-12-2009 07:51:01 -1.1 C 4.22 g/m*3 -1.1 C 0 km/h
161 29-12-2009 08:03:01 -1.2 C 4.19 g/m*3 -1.2 C 0 km/h
162 29-12-2009 08:15:02 -1 C 4.25 g/m*3 -1 C 0 km/h
163 29-12-2009 08:27:02 -0.9 C 4.28 g/m*3 -0.9 C 0 km/h
164 29-12-2009 08:39:02 -0.7 C 4.34 g/m*3 -0.7 C 0 km/h
165 29-12-2009 08:51:02 -0.5 C 4.45 g/m*3 -0.5 C 0 km/h
166 29-12-2009 09:03:02 -0.3 C 4.51 g/m*3 -0.3 C 0 km/h
167 29-12-2009 09:15:02 -0.1 C 4.57 g/m*3 -0.1 C 0 km/h
168 29-12-2009 09:27:02 0.1 C 4.63 g/m*3 0.1 C 0 km/h
169 29-12-2009 09:39:02 0.3 C 4.7 g/m*3 0.3 C 0 km/h
170 29-12-2009 09:51:01 0.4 C 4.68 g/m*3 0.4 C 0 km/h
171 29-12-2009 10:03:02 0.6 C 4.75 g/m*3 0.6 C 0 km/h
172 29-12-2009 10:15:02 0.7 C 4.78 g/m*3 0.7 C 0 km/h
173 29-12-2009 10:27:02 1 C 4.83 g/m*3 1 C 0 km/h
174 29-12-2009 10:39:02 1.3 C 4.87 g/m*3 1.3 C 0 km/h
175 29-12-2009 10:51:01 1.4 C 4.91 g/m*3 1.4 C 0 km/h
Sensor: Nr:Datum:Temp:Abs-Feuchte:Windchill:Wind:
Aussen-T/F 176 29-12-2009 11:03:02 1.6 C 4.92 g/m*3 1.6 C 0 km/h
177 29-12-2009 11:15:02 1.8 C 4.93 g/m*3 1.8 C 0 km/h
178 29-12-2009 11:27:02 1.8 C 4.88 g/m*3 1.8 C 0 km/h
179 29-12-2009 11:39:01 1.9 C 4.86 g/m*3 1.9 C 0 km/h
180 29-12-2009 11:51:02 2.2 C 4.9 g/m*3 2.2 C 0 km/h
181 29-12-2009 12:03:01 2.3 C 4.82 g/m*3 2.3 C 0 km/h
182 29-12-2009 12:15:01 2.2 C 4.79 g/m*3 2.2 C 0 km/h
183 29-12-2009 12:27:02 2.3 C 4.82 g/m*3 2.3 C 0 km/h
184 29-12-2009 12:39:01 2.3 C 4.88 g/m*3 2.3 C 0 km/h
185 29-12-2009 12:51:02 2.3 C 4.88 g/m*3 2.3 C 0 km/h
186 29-12-2009 13:03:02 2.3 C 4.93 g/m*3 2.3 C 0 km/h
187 29-12-2009 13:15:02 2.2 C 4.96 g/m*3 2.2 C 0 km/h
188 29-12-2009 13:27:02 2.1 C 4.92 g/m*3 2.1 C 0 km/h
189 29-12-2009 13:39:02 1.9 C 4.91 g/m*3 1.9 C 0 km/h
190 29-12-2009 13:51:02 1.8 C 4.93 g/m*3 1.8 C 0 km/h
191 29-12-2009 14:03:02 1.8 C 4.93 g/m*3 1.8 C 0 km/h
192 29-12-2009 14:15:01 1.8 C 4.93 g/m*3 1.8 C 0 km/h
193 29-12-2009 14:27:01 1.8 C 4.99 g/m*3 1.8 C 0 km/h
194 29-12-2009 14:39:02 1.9 C 5.08 g/m*3 1.9 C 0 km/h
195 29-12-2009 14:51:02 1.9 C 5.08 g/m*3 1.9 C 0 km/h
196 29-12-2009 15:03:02 2 C 5.06 g/m*3 2 C 0 km/h
197 29-12-2009 15:15:01 2 C 5.11 g/m*3 2 C 0 km/h
198 29-12-2009 15:27:01 1.9 C 5.13 g/m*3 1.9 C 0 km/h
199 29-12-2009 15:39:02 1.9 C 5.13 g/m*3 1.9 C 0 km/h
200 29-12-2009 15:51:02 1.9 C 5.13 g/m*3 1.9 C 0 km/h
Sensor: Nr:Datum:Temp:Abs-Feuchte:Windchill:Wind:
Aussen-T/F 201 29-12-2009 16:03:02 1.9 C 5.13 g/m*3 1.9 C 0 km/h
202 29-12-2009 16:15:02 1.9 C 5.13 g/m*3 1.9 C 0 km/h
203 29-12-2009 16:27:02 1.8 C 5.15 g/m*3 1.8 C 0 km/h
204 29-12-2009 16:39:02 1.8 C 5.15 g/m*3 1.8 C 0 km/h
205 29-12-2009 16:51:01 1.9 C 5.19 g/m*3 1.9 C 0 km/h
206 29-12-2009 17:03:02 1.9 C 5.19 g/m*3 1.9 C 0 km/h
207 29-12-2009 17:15:01 2 C 5.22 g/m*3 2 C 0 km/h
208 29-12-2009 17:27:01 2 C 5.28 g/m*3 2 C 0 km/h
209 29-12-2009 17:39:01 2.1 C 5.31 g/m*3 2.1 C 0 km/h
210 29-12-2009 17:51:02 2.1 C 5.31 g/m*3 2.1 C 0 km/h
211 29-12-2009 18:03:02 2.1 C 5.31 g/m*3 2.1 C 0 km/h
212 29-12-2009 18:15:01 2.2 C 5.35 g/m*3 2.2 C 0 km/h
213 29-12-2009 18:27:01 2.2 C 5.35 g/m*3 2.2 C 0 km/h
214 29-12-2009 18:39:02 2.2 C 5.35 g/m*3 2.2 C 0 km/h
215 29-12-2009 18:51:02 2.4 C 5.42 g/m*3 2.4 C 0 km/h
216 29-12-2009 19:03:02 2.3 C 5.39 g/m*3 2.3 C 0 km/h
217 29-12-2009 19:15:01 2.4 C 5.42 g/m*3 2.4 C 0 km/h
218 29-12-2009 19:27:01 2.4 C 5.42 g/m*3 2.4 C 0 km/h
219 29-12-2009 19:39:02 2.4 C 5.42 g/m*3 2.4 C 0 km/h
220 29-12-2009 19:51:02 2.4 C 5.42 g/m*3 2.4 C 0 km/h
221 29-12-2009 20:03:02 2.4 C 5.42 g/m*3 2.4 C 0 km/h
222 29-12-2009 20:15:02 2.4 C 5.42 g/m*3 2.4 C 0 km/h
223 29-12-2009 20:27:02 2.4 C 5.42 g/m*3 2.4 C 0 km/h
224 29-12-2009 20:39:02 2.4 C 5.42 g/m*3 2.4 C 0 km/h
225 29-12-2009 20:51:02 2.4 C 5.42 g/m*3 2.4 C 0 km/h
Sensor: Nr:Datum:Temp:Abs-Feuchte:Windchill:Wind:
Aussen-T/F 226 29-12-2009 21:03:02 2.4 C 5.42 g/m*3 2.4 C 0 km/h
227 29-12-2009 21:15:03 2.5 C 5.46 g/m*3 2.5 C 0 km/h
228 29-12-2009 21:27:03 2.5 C 5.46 g/m*3 2.5 C 0 km/h
229 29-12-2009 21:39:02 2.5 C 5.46 g/m*3 2.5 C 0 km/h
230 29-12-2009 21:51:02 2.5 C 5.46 g/m*3 2.5 C 0 km/h
231 29-12-2009 22:03:02 2.5 C 5.46 g/m*3 2.5 C 0 km/h
232 29-12-2009 22:15:02 2.5 C 5.46 g/m*3 2.5 C 0 km/h
233 29-12-2009 22:27:02 2.5 C 5.46 g/m*3 2.5 C 0 km/h
234 29-12-2009 22:39:02 2.5 C 5.46 g/m*3 2.5 C 0 km/h
235 29-12-2009 22:51:02 2.6 C 5.5 g/m*3 2.6 C 0 km/h
236 29-12-2009 23:04:51 2.6 C 5.5 g/m*3 2.6 C 0 km/h
237 29-12-2009 23:16:51 2.7 C 5.54 g/m*3 2.7 C 0 km/h
238 29-12-2009 23:28:51 2.7 C 5.54 g/m*3 2.7 C 0 km/h
239 29-12-2009 23:40:51 2.8 C 5.57 g/m*3 2.8 C 0 km/h
240 29-12-2009 23:52:51 2.8 C 5.57 g/m*3 2.8 C 0 km/h

Legende:
   Min
   Max


Maximal/Minimal-Werte vom 28.12.2009 - 29.12.2009

Sensor Min Max Avg
Temp
(Aussen-T/F)
-2.9 °C
29-12-2009  05:51:04
5.1 °C
28-12-2009  13:38:02
1.8 °C
Abs-Feuchte
(Aussen-T/F)
3.63 g/m*3
29-12-2009  05:03:04
5.57 g/m*3
29-12-2009  23:40:51
4.54 g/m*3
Windchill
(Aussen-T/F)
-2.9 C
29-12-2009  05:51:04
5.1 C
28-12-2009  13:38:02
1.8 C

Die Daten stammen von einer Davis Vantage Pro 2 Wetter-Station und werden unter Linux mit der Software wview2wettercgi und aufbereitet. Alle Angaben erfolgen ohne Gewähr für ihre Vollständigkeit oder Richtigkeit.
Kontakt: Rainer Krienke krienke@uni-koblenz.de . Meine Webseiten an der Uni Koblenz oder privat.
Version: $Revision: 0.78 $